sensor_id;sensor_type;location;lat;lon;timestamp;P1;durP1;ratioP1;P2;durP2;ratioP2
12484;SDS011;6307;46.804;11.580;2022-07-05T00:01:08;3.43;;;2.97;;
12484;SDS011;6307;46.804;11.580;2022-07-05T00:03:34;4.83;;;2.73;;
12484;SDS011;6307;46.804;11.580;2022-07-05T00:06:00;4.90;;;3.40;;
12484;SDS011;6307;46.804;11.580;2022-07-05T00:08:27;3.90;;;3.20;;
12484;SDS011;6307;46.804;11.580;2022-07-05T00:10:54;4.07;;;2.97;;
12484;SDS011;6307;46.804;11.580;2022-07-05T00:13:20;4.70;;;3.00;;
12484;SDS011;6307;46.804;11.580;2022-07-05T00:15:46;3.43;;;3.10;;
12484;SDS011;6307;46.804;11.580;2022-07-05T00:18:12;3.63;;;3.33;;
12484;SDS011;6307;46.804;11.580;2022-07-05T00:20:38;6.93;;;4.03;;
12484;SDS011;6307;46.804;11.580;2022-07-05T00:23:04;4.60;;;4.20;;
12484;SDS011;6307;46.804;11.580;2022-07-05T00:25:30;5.77;;;4.70;;
12484;SDS011;6307;46.804;11.580;2022-07-05T00:27:57;4.43;;;3.50;;
12484;SDS011;6307;46.804;11.580;2022-07-05T00:30:23;4.67;;;4.00;;
12484;SDS011;6307;46.804;11.580;2022-07-05T00:32:49;4.40;;;3.90;;
12484;SDS011;6307;46.804;11.580;2022-07-05T00:35:17;5.03;;;4.50;;
12484;SDS011;6307;46.804;11.580;2022-07-05T00:37:43;4.63;;;4.20;;
12484;SDS011;6307;46.804;11.580;2022-07-05T00:40:09;4.43;;;4.10;;
12484;SDS011;6307;46.804;11.580;2022-07-05T00:42:35;5.03;;;4.53;;
12484;SDS011;6307;46.804;11.580;2022-07-05T00:45:05;5.50;;;4.77;;
12484;SDS011;6307;46.804;11.580;2022-07-05T00:47:32;5.27;;;4.47;;
12484;SDS011;6307;46.804;11.580;2022-07-05T00:49:59;4.73;;;4.33;;
12484;SDS011;6307;46.804;11.580;2022-07-05T00:52:25;4.80;;;4.30;;
12484;SDS011;6307;46.804;11.580;2022-07-05T00:54:51;4.40;;;4.00;;
12484;SDS011;6307;46.804;11.580;2022-07-05T00:57:19;5.73;;;4.27;;
12484;SDS011;6307;46.804;11.580;2022-07-05T00:59:47;5.67;;;3.47;;
12484;SDS011;6307;46.804;11.580;2022-07-05T01:02:14;3.33;;;2.97;;
12484;SDS011;6307;46.804;11.580;2022-07-05T01:04:41;3.33;;;2.97;;
12484;SDS011;6307;46.804;11.580;2022-07-05T01:07:07;6.17;;;3.30;;
12484;SDS011;6307;46.804;11.580;2022-07-05T01:09:33;3.00;;;2.70;;
12484;SDS011;6307;46.804;11.580;2022-07-05T01:12:01;2.60;;;2.40;;
12484;SDS011;6307;46.804;11.580;2022-07-05T01:14:27;3.47;;;2.47;;
12484;SDS011;6307;46.804;11.580;2022-07-05T01:16:53;5.70;;;3.10;;
12484;SDS011;6307;46.804;11.580;2022-07-05T01:19:20;2.90;;;2.17;;
12484;SDS011;6307;46.804;11.580;2022-07-05T01:21:48;2.73;;;2.50;;
12484;SDS011;6307;46.804;11.580;2022-07-05T01:24:16;2.47;;;2.27;;
12484;SDS011;6307;46.804;11.580;2022-07-05T01:26:45;4.53;;;2.60;;
12484;SDS011;6307;46.804;11.580;2022-07-05T01:29:14;6.13;;;3.30;;
12484;SDS011;6307;46.804;11.580;2022-07-05T01:31:42;4.90;;;3.00;;
12484;SDS011;6307;46.804;11.580;2022-07-05T01:34:08;3.37;;;3.07;;
12484;SDS011;6307;46.804;11.580;2022-07-05T01:36:34;5.00;;;2.77;;
12484;SDS011;6307;46.804;11.580;2022-07-05T01:39:03;3.83;;;2.50;;
12484;SDS011;6307;46.804;11.580;2022-07-05T01:41:31;3.33;;;2.70;;
12484;SDS011;6307;46.804;11.580;2022-07-05T01:43:59;2.70;;;2.50;;
12484;SDS011;6307;46.804;11.580;2022-07-05T01:46:25;2.80;;;2.60;;
12484;SDS011;6307;46.804;11.580;2022-07-05T01:48:58;2.90;;;2.60;;
12484;SDS011;6307;46.804;11.580;2022-07-05T01:51:33;4.83;;;2.80;;
12484;SDS011;6307;46.804;11.580;2022-07-05T01:54:05;4.23;;;2.30;;
12484;SDS011;6307;46.804;11.580;2022-07-05T01:56:32;3.23;;;2.47;;
12484;SDS011;6307;46.804;11.580;2022-07-05T01:58:58;2.77;;;2.23;;
12484;SDS011;6307;46.804;11.580;2022-07-05T02:01:33;4.10;;;2.30;;
12484;SDS011;6307;46.804;11.580;2022-07-05T02:04:02;2.90;;;2.23;;
12484;SDS011;6307;46.804;11.580;2022-07-05T02:06:31;3.47;;;2.60;;
12484;SDS011;6307;46.804;11.580;2022-07-05T02:08:59;2.10;;;1.90;;
12484;SDS011;6307;46.804;11.580;2022-07-05T02:11:27;2.53;;;2.00;;
12484;SDS011;6307;46.804;11.580;2022-07-05T02:13:53;2.93;;;2.10;;
12484;SDS011;6307;46.804;11.580;2022-07-05T02:16:26;2.67;;;2.37;;
12484;SDS011;6307;46.804;11.580;2022-07-05T02:18:54;2.30;;;2.10;;
12484;SDS011;6307;46.804;11.580;2022-07-05T02:21:21;1.90;;;1.80;;
12484;SDS011;6307;46.804;11.580;2022-07-05T02:23:47;2.67;;;2.20;;
12484;SDS011;6307;46.804;11.580;2022-07-05T02:26:14;3.40;;;2.47;;
12484;SDS011;6307;46.804;11.580;2022-07-05T02:28:40;2.87;;;2.20;;
12484;SDS011;6307;46.804;11.580;2022-07-05T02:31:08;2.63;;;1.97;;
12484;SDS011;6307;46.804;11.580;2022-07-05T02:33:34;2.63;;;1.90;;
12484;SDS011;6307;46.804;11.580;2022-07-05T02:36:07;1.93;;;1.77;;
12484;SDS011;6307;46.804;11.580;2022-07-05T02:38:38;3.10;;;1.90;;
12484;SDS011;6307;46.804;11.580;2022-07-05T02:41:06;3.30;;;1.97;;
12484;SDS011;6307;46.804;11.580;2022-07-05T02:43:34;3.37;;;1.80;;
12484;SDS011;6307;46.804;11.580;2022-07-05T02:46:00;3.50;;;2.03;;
12484;SDS011;6307;46.804;11.580;2022-07-05T02:48:28;1.83;;;1.70;;
12484;SDS011;6307;46.804;11.580;2022-07-05T02:50:56;2.30;;;1.80;;
12484;SDS011;6307;46.804;11.580;2022-07-05T02:53:22;2.00;;;1.63;;
12484;SDS011;6307;46.804;11.580;2022-07-05T02:55:49;2.30;;;1.70;;
12484;SDS011;6307;46.804;11.580;2022-07-05T02:58:16;1.60;;;1.50;;
12484;SDS011;6307;46.804;11.580;2022-07-05T03:00:43;1.50;;;1.40;;
12484;SDS011;6307;46.804;11.580;2022-07-05T03:03:10;2.20;;;1.93;;
12484;SDS011;6307;46.804;11.580;2022-07-05T03:05:36;3.40;;;1.70;;
12484;SDS011;6307;46.804;11.580;2022-07-05T03:08:02;3.17;;;2.10;;
12484;SDS011;6307;46.804;11.580;2022-07-05T03:10:28;6.50;;;2.00;;
12484;SDS011;6307;46.804;11.580;2022-07-05T03:12:55;1.90;;;1.70;;
12484;SDS011;6307;46.804;11.580;2022-07-05T03:15:21;2.17;;;1.90;;
12484;SDS011;6307;46.804;11.580;2022-07-05T03:17:47;3.23;;;1.87;;
12484;SDS011;6307;46.804;11.580;2022-07-05T03:20:13;3.07;;;1.70;;
12484;SDS011;6307;46.804;11.580;2022-07-05T03:22:40;2.47;;;1.70;;
12484;SDS011;6307;46.804;11.580;2022-07-05T03:25:06;4.53;;;1.87;;
12484;SDS011;6307;46.804;11.580;2022-07-05T03:27:33;1.83;;;1.63;;
12484;SDS011;6307;46.804;11.580;2022-07-05T03:29:59;2.23;;;1.63;;
12484;SDS011;6307;46.804;11.580;2022-07-05T03:32:26;2.33;;;1.60;;
12484;SDS011;6307;46.804;11.580;2022-07-05T03:34:52;3.23;;;1.90;;
12484;SDS011;6307;46.804;11.580;2022-07-05T03:37:18;2.13;;;1.83;;
12484;SDS011;6307;46.804;11.580;2022-07-05T03:39:45;2.40;;;2.20;;
12484;SDS011;6307;46.804;11.580;2022-07-05T03:42:11;2.30;;;1.70;;
12484;SDS011;6307;46.804;11.580;2022-07-05T03:44:37;2.10;;;1.90;;
12484;SDS011;6307;46.804;11.580;2022-07-05T03:47:03;3.77;;;1.87;;
12484;SDS011;6307;46.804;11.580;2022-07-05T03:49:29;3.70;;;2.23;;
12484;SDS011;6307;46.804;11.580;2022-07-05T03:51:56;3.40;;;2.70;;
12484;SDS011;6307;46.804;11.580;2022-07-05T03:54:22;4.30;;;2.63;;
12484;SDS011;6307;46.804;11.580;2022-07-05T03:56:48;4.23;;;2.40;;
12484;SDS011;6307;46.804;11.580;2022-07-05T03:59:14;3.63;;;2.87;;
12484;SDS011;6307;46.804;11.580;2022-07-05T04:01:40;2.60;;;2.40;;
12484;SDS011;6307;46.804;11.580;2022-07-05T04:04:06;2.57;;;2.37;;
12484;SDS011;6307;46.804;11.580;2022-07-05T04:06:33;3.07;;;2.77;;
12484;SDS011;6307;46.804;11.580;2022-07-05T04:08:59;5.03;;;2.47;;
12484;SDS011;6307;46.804;11.580;2022-07-05T04:11:25;5.67;;;2.80;;
12484;SDS011;6307;46.804;11.580;2022-07-05T04:13:52;2.80;;;2.47;;
12484;SDS011;6307;46.804;11.580;2022-07-05T04:16:18;2.33;;;2.20;;
12484;SDS011;6307;46.804;11.580;2022-07-05T04:18:44;3.73;;;2.30;;
12484;SDS011;6307;46.804;11.580;2022-07-05T04:21:10;4.97;;;1.83;;
12484;SDS011;6307;46.804;11.580;2022-07-05T04:23:36;2.77;;;2.07;;
12484;SDS011;6307;46.804;11.580;2022-07-05T04:26:02;2.73;;;1.70;;
12484;SDS011;6307;46.804;11.580;2022-07-05T04:28:28;2.03;;;1.83;;
12484;SDS011;6307;46.804;11.580;2022-07-05T04:30:58;3.53;;;1.73;;
12484;SDS011;6307;46.804;11.580;2022-07-05T04:33:24;1.80;;;1.70;;
12484;SDS011;6307;46.804;11.580;2022-07-05T04:35:51;3.53;;;1.80;;
12484;SDS011;6307;46.804;11.580;2022-07-05T04:38:17;1.90;;;1.80;;
12484;SDS011;6307;46.804;11.580;2022-07-05T04:40:43;2.10;;;1.90;;
12484;SDS011;6307;46.804;11.580;2022-07-05T04:43:09;3.47;;;2.33;;
12484;SDS011;6307;46.804;11.580;2022-07-05T04:45:35;2.13;;;1.80;;
12484;SDS011;6307;46.804;11.580;2022-07-05T04:48:01;2.87;;;1.90;;
12484;SDS011;6307;46.804;11.580;2022-07-05T04:50:28;2.00;;;1.80;;
12484;SDS011;6307;46.804;11.580;2022-07-05T04:52:54;2.93;;;1.47;;
12484;SDS011;6307;46.804;11.580;2022-07-05T04:55:21;1.77;;;1.50;;
12484;SDS011;6307;46.804;11.580;2022-07-05T04:57:47;2.17;;;1.40;;
12484;SDS011;6307;46.804;11.580;2022-07-05T05:00:13;1.57;;;1.47;;
12484;SDS011;6307;46.804;11.580;2022-07-05T05:02:40;2.53;;;1.60;;
12484;SDS011;6307;46.804;11.580;2022-07-05T05:05:07;3.27;;;1.70;;
12484;SDS011;6307;46.804;11.580;2022-07-05T05:07:34;1.63;;;1.50;;
12484;SDS011;6307;46.804;11.580;2022-07-05T05:10:02;2.53;;;1.60;;
12484;SDS011;6307;46.804;11.580;2022-07-05T05:12:30;2.40;;;1.57;;
12484;SDS011;6307;46.804;11.580;2022-07-05T05:14:56;6.67;;;2.07;;
12484;SDS011;6307;46.804;11.580;2022-07-05T05:17:22;3.97;;;1.93;;
12484;SDS011;6307;46.804;11.580;2022-07-05T05:19:48;3.97;;;2.20;;
12484;SDS011;6307;46.804;11.580;2022-07-05T05:22:14;4.77;;;2.17;;
12484;SDS011;6307;46.804;11.580;2022-07-05T05:24:41;3.00;;;2.20;;
12484;SDS011;6307;46.804;11.580;2022-07-05T05:27:07;3.13;;;2.13;;
12484;SDS011;6307;46.804;11.580;2022-07-05T05:29:33;2.60;;;2.00;;
12484;SDS011;6307;46.804;11.580;2022-07-05T05:31:59;2.53;;;1.70;;
12484;SDS011;6307;46.804;11.580;2022-07-05T05:34:25;3.70;;;1.70;;
12484;SDS011;6307;46.804;11.580;2022-07-05T05:36:52;4.47;;;1.60;;
12484;SDS011;6307;46.804;11.580;2022-07-05T05:39:19;5.80;;;1.80;;
12484;SDS011;6307;46.804;11.580;2022-07-05T05:41:45;4.63;;;1.63;;
12484;SDS011;6307;46.804;11.580;2022-07-05T05:44:11;9.30;;;2.40;;
12484;SDS011;6307;46.804;11.580;2022-07-05T05:46:37;3.23;;;2.23;;
12484;SDS011;6307;46.804;11.580;2022-07-05T05:49:03;4.53;;;2.40;;
12484;SDS011;6307;46.804;11.580;2022-07-05T05:51:29;2.83;;;2.00;;
12484;SDS011;6307;46.804;11.580;2022-07-05T05:53:56;21.40;;;2.87;;
12484;SDS011;6307;46.804;11.580;2022-07-05T05:56:22;11.57;;;2.30;;
12484;SDS011;6307;46.804;11.580;2022-07-05T05:58:48;6.57;;;1.93;;
12484;SDS011;6307;46.804;11.580;2022-07-05T06:01:14;3.77;;;1.47;;
12484;SDS011;6307;46.804;11.580;2022-07-05T06:03:40;1.13;;;1.10;;
12484;SDS011;6307;46.804;11.580;2022-07-05T06:06:06;1.70;;;1.10;;
12484;SDS011;6307;46.804;11.580;2022-07-05T06:08:32;2.17;;;0.80;;
12484;SDS011;6307;46.804;11.580;2022-07-05T06:10:59;0.87;;;0.87;;
12484;SDS011;6307;46.804;11.580;2022-07-05T06:13:29;3.87;;;0.90;;
12484;SDS011;6307;46.804;11.580;2022-07-05T06:15:56;5.03;;;1.13;;
12484;SDS011;6307;46.804;11.580;2022-07-05T06:18:22;1.87;;;0.90;;
12484;SDS011;6307;46.804;11.580;2022-07-05T06:20:48;1.77;;;0.70;;
12484;SDS011;6307;46.804;11.580;2022-07-05T06:23:14;2.10;;;0.80;;
12484;SDS011;6307;46.804;11.580;2022-07-05T06:25:40;3.83;;;0.90;;
12484;SDS011;6307;46.804;11.580;2022-07-05T06:28:08;7.63;;;0.90;;
12484;SDS011;6307;46.804;11.580;2022-07-05T06:30:35;1.63;;;0.70;;
12484;SDS011;6307;46.804;11.580;2022-07-05T06:33:04;2.77;;;1.07;;
12484;SDS011;6307;46.804;11.580;2022-07-05T06:35:30;7.13;;;1.30;;
12484;SDS011;6307;46.804;11.580;2022-07-05T06:37:59;5.93;;;0.97;;
12484;SDS011;6307;46.804;11.580;2022-07-05T06:40:37;2.13;;;0.80;;
12484;SDS011;6307;46.804;11.580;2022-07-05T06:43:09;2.07;;;0.80;;
12484;SDS011;6307;46.804;11.580;2022-07-05T06:45:38;2.93;;;0.60;;
12484;SDS011;6307;46.804;11.580;2022-07-05T06:48:06;1.13;;;0.80;;
12484;SDS011;6307;46.804;11.580;2022-07-05T06:50:36;2.60;;;0.70;;
12484;SDS011;6307;46.804;11.580;2022-07-05T06:53:05;0.90;;;0.73;;
12484;SDS011;6307;46.804;11.580;2022-07-05T06:55:33;1.33;;;0.80;;
12484;SDS011;6307;46.804;11.580;2022-07-05T06:58:08;1.23;;;0.90;;
12484;SDS011;6307;46.804;11.580;2022-07-05T07:00:35;1.50;;;0.70;;
12484;SDS011;6307;46.804;11.580;2022-07-05T07:03:01;2.47;;;0.80;;
12484;SDS011;6307;46.804;11.580;2022-07-05T07:05:27;1.27;;;0.70;;
12484;SDS011;6307;46.804;11.580;2022-07-05T07:07:53;2.47;;;0.70;;
12484;SDS011;6307;46.804;11.580;2022-07-05T07:10:38;2.20;;;0.70;;
12484;SDS011;6307;46.804;11.580;2022-07-05T07:13:04;2.90;;;1.03;;
12484;SDS011;6307;46.804;11.580;2022-07-05T07:15:31;1.60;;;0.60;;
12484;SDS011;6307;46.804;11.580;2022-07-05T07:17:58;4.30;;;0.87;;
12484;SDS011;6307;46.804;11.580;2022-07-05T07:20:25;0.97;;;0.70;;
12484;SDS011;6307;46.804;11.580;2022-07-05T07:22:51;1.20;;;0.80;;
12484;SDS011;6307;46.804;11.580;2022-07-05T07:25:18;3.43;;;0.67;;
12484;SDS011;6307;46.804;11.580;2022-07-05T07:27:51;2.53;;;0.83;;
12484;SDS011;6307;46.804;11.580;2022-07-05T07:30:22;1.90;;;1.10;;
12484;SDS011;6307;46.804;11.580;2022-07-05T07:32:52;4.13;;;0.70;;
12484;SDS011;6307;46.804;11.580;2022-07-05T07:35:19;2.70;;;0.87;;
12484;SDS011;6307;46.804;11.580;2022-07-05T07:37:45;1.30;;;0.93;;
12484;SDS011;6307;46.804;11.580;2022-07-05T07:40:12;0.93;;;0.60;;
12484;SDS011;6307;46.804;11.580;2022-07-05T07:42:38;1.20;;;0.80;;
12484;SDS011;6307;46.804;11.580;2022-07-05T07:45:05;2.73;;;0.90;;
12484;SDS011;6307;46.804;11.580;2022-07-05T07:47:32;1.30;;;0.77;;
12484;SDS011;6307;46.804;11.580;2022-07-05T07:50:00;2.80;;;0.80;;
12484;SDS011;6307;46.804;11.580;2022-07-05T07:52:28;1.47;;;0.80;;
12484;SDS011;6307;46.804;11.580;2022-07-05T07:54:55;1.37;;;0.77;;
12484;SDS011;6307;46.804;11.580;2022-07-05T07:57:22;2.20;;;0.90;;
12484;SDS011;6307;46.804;11.580;2022-07-05T07:59:48;3.70;;;0.93;;
12484;SDS011;6307;46.804;11.580;2022-07-05T08:02:14;1.80;;;0.77;;
12484;SDS011;6307;46.804;11.580;2022-07-05T08:04:42;6.13;;;1.00;;
12484;SDS011;6307;46.804;11.580;2022-07-05T08:07:08;3.70;;;1.00;;
12484;SDS011;6307;46.804;11.580;2022-07-05T08:09:34;4.43;;;1.00;;
12484;SDS011;6307;46.804;11.580;2022-07-05T08:12:00;1.47;;;0.90;;
12484;SDS011;6307;46.804;11.580;2022-07-05T08:14:26;1.43;;;0.80;;
12484;SDS011;6307;46.804;11.580;2022-07-05T08:16:53;1.80;;;0.80;;
12484;SDS011;6307;46.804;11.580;2022-07-05T08:19:19;4.77;;;1.07;;
12484;SDS011;6307;46.804;11.580;2022-07-05T08:22:04;1.60;;;0.97;;
12484;SDS011;6307;46.804;11.580;2022-07-05T08:24:33;2.50;;;1.00;;
12484;SDS011;6307;46.804;11.580;2022-07-05T08:26:59;2.87;;;0.90;;
12484;SDS011;6307;46.804;11.580;2022-07-05T08:29:25;1.80;;;1.00;;
12484;SDS011;6307;46.804;11.580;2022-07-05T08:31:52;1.43;;;1.10;;
12484;SDS011;6307;46.804;11.580;2022-07-05T08:34:18;1.63;;;1.03;;
12484;SDS011;6307;46.804;11.580;2022-07-05T08:36:46;2.70;;;1.03;;
12484;SDS011;6307;46.804;11.580;2022-07-05T08:39:13;2.33;;;0.90;;
12484;SDS011;6307;46.804;11.580;2022-07-05T08:41:41;1.90;;;0.90;;
12484;SDS011;6307;46.804;11.580;2022-07-05T08:44:12;3.90;;;1.27;;
12484;SDS011;6307;46.804;11.580;2022-07-05T08:46:44;1.67;;;0.90;;
12484;SDS011;6307;46.804;11.580;2022-07-05T08:49:15;2.37;;;1.10;;
12484;SDS011;6307;46.804;11.580;2022-07-05T08:51:53;1.13;;;0.80;;
12484;SDS011;6307;46.804;11.580;2022-07-05T08:54:21;0.80;;;0.80;;
12484;SDS011;6307;46.804;11.580;2022-07-05T08:56:49;1.43;;;0.80;;
12484;SDS011;6307;46.804;11.580;2022-07-05T08:59:16;3.30;;;0.97;;
12484;SDS011;6307;46.804;11.580;2022-07-05T09:01:44;2.80;;;1.40;;
12484;SDS011;6307;46.804;11.580;2022-07-05T09:04:12;4.67;;;1.30;;
12484;SDS011;6307;46.804;11.580;2022-07-05T09:06:41;2.53;;;0.87;;
12484;SDS011;6307;46.804;11.580;2022-07-05T09:09:11;1.97;;;1.00;;
12484;SDS011;6307;46.804;11.580;2022-07-05T09:11:41;1.53;;;1.03;;
12484;SDS011;6307;46.804;11.580;2022-07-05T09:14:24;2.47;;;1.03;;
12484;SDS011;6307;46.804;11.580;2022-07-05T09:16:51;4.37;;;1.20;;
12484;SDS011;6307;46.804;11.580;2022-07-05T09:19:18;3.43;;;1.20;;
12484;SDS011;6307;46.804;11.580;2022-07-05T09:21:44;1.83;;;1.00;;
12484;SDS011;6307;46.804;11.580;2022-07-05T09:24:12;1.80;;;0.70;;
12484;SDS011;6307;46.804;11.580;2022-07-05T09:29:15;1.90;;;1.03;;
12484;SDS011;6307;46.804;11.580;2022-07-05T09:31:45;2.83;;;1.07;;
12484;SDS011;6307;46.804;11.580;2022-07-05T09:34:17;4.83;;;1.33;;
12484;SDS011;6307;46.804;11.580;2022-07-05T09:39:16;2.33;;;1.40;;
12484;SDS011;6307;46.804;11.580;2022-07-05T09:42:12;2.37;;;1.13;;
12484;SDS011;6307;46.804;11.580;2022-07-05T09:44:56;2.00;;;1.00;;
12484;SDS011;6307;46.804;11.580;2022-07-05T09:47:24;1.33;;;1.00;;
12484;SDS011;6307;46.804;11.580;2022-07-05T09:49:54;3.27;;;1.20;;
12484;SDS011;6307;46.804;11.580;2022-07-05T09:52:33;2.20;;;1.20;;
12484;SDS011;6307;46.804;11.580;2022-07-05T09:55:10;2.30;;;1.20;;
12484;SDS011;6307;46.804;11.580;2022-07-05T09:57:42;2.50;;;1.33;;
12484;SDS011;6307;46.804;11.580;2022-07-05T10:00:14;2.70;;;1.33;;
12484;SDS011;6307;46.804;11.580;2022-07-05T10:02:49;3.57;;;1.30;;
12484;SDS011;6307;46.804;11.580;2022-07-05T10:05:25;1.30;;;1.10;;
12484;SDS011;6307;46.804;11.580;2022-07-05T10:07:58;1.40;;;1.17;;
12484;SDS011;6307;46.804;11.580;2022-07-05T10:10:27;1.57;;;1.20;;
12484;SDS011;6307;46.804;11.580;2022-07-05T10:12:56;2.13;;;1.00;;
12484;SDS011;6307;46.804;11.580;2022-07-05T10:15:25;2.20;;;1.03;;
12484;SDS011;6307;46.804;11.580;2022-07-05T10:18:00;1.23;;;1.00;;
12484;SDS011;6307;46.804;11.580;2022-07-05T10:20:39;1.50;;;0.90;;
12484;SDS011;6307;46.804;11.580;2022-07-05T10:23:10;2.37;;;0.97;;
12484;SDS011;6307;46.804;11.580;2022-07-05T10:25:42;2.50;;;1.00;;
12484;SDS011;6307;46.804;11.580;2022-07-05T10:28:14;0.80;;;0.70;;
12484;SDS011;6307;46.804;11.580;2022-07-05T10:30:46;1.33;;;0.90;;
12484;SDS011;6307;46.804;11.580;2022-07-05T10:33:17;1.87;;;1.00;;
12484;SDS011;6307;46.804;11.580;2022-07-05T10:35:52;3.07;;;0.83;;
12484;SDS011;6307;46.804;11.580;2022-07-05T10:38:19;2.33;;;0.80;;
12484;SDS011;6307;46.804;11.580;2022-07-05T10:40:47;1.27;;;0.80;;
12484;SDS011;6307;46.804;11.580;2022-07-05T10:43:23;1.67;;;0.70;;
12484;SDS011;6307;46.804;11.580;2022-07-05T10:45:51;0.80;;;0.70;;
12484;SDS011;6307;46.804;11.580;2022-07-05T10:58:37;1.07;;;0.80;;
12484;SDS011;6307;46.804;11.580;2022-07-05T11:03:47;2.23;;;1.10;;
12484;SDS011;6307;46.804;11.580;2022-07-05T11:16:45;1.07;;;0.87;;
12484;SDS011;6307;46.804;11.580;2022-07-05T11:19:32;1.07;;;0.80;;
12484;SDS011;6307;46.804;11.580;2022-07-05T11:21:59;1.03;;;0.73;;
12484;SDS011;6307;46.804;11.580;2022-07-05T11:24:32;1.97;;;1.00;;
12484;SDS011;6307;46.804;11.580;2022-07-05T11:27:09;0.90;;;0.80;;
12484;SDS011;6307;46.804;11.580;2022-07-05T11:29:43;1.50;;;1.00;;
12484;SDS011;6307;46.804;11.580;2022-07-05T11:32:18;1.83;;;0.80;;
12484;SDS011;6307;46.804;11.580;2022-07-05T11:35:17;0.90;;;0.70;;
12484;SDS011;6307;46.804;11.580;2022-07-05T11:38:04;6.70;;;0.93;;
12484;SDS011;6307;46.804;11.580;2022-07-05T11:40:35;0.70;;;0.70;;
12484;SDS011;6307;46.804;11.580;2022-07-05T11:43:05;4.60;;;0.90;;
12484;SDS011;6307;46.804;11.580;2022-07-05T11:45:33;1.17;;;0.70;;
12484;SDS011;6307;46.804;11.580;2022-07-05T11:48:00;2.30;;;0.70;;
12484;SDS011;6307;46.804;11.580;2022-07-05T11:50:32;1.27;;;0.80;;
12484;SDS011;6307;46.804;11.580;2022-07-05T11:52:59;0.50;;;0.43;;
12484;SDS011;6307;46.804;11.580;2022-07-05T11:55:27;0.70;;;0.60;;
12484;SDS011;6307;46.804;11.580;2022-07-05T11:57:55;1.13;;;0.60;;
12484;SDS011;6307;46.804;11.580;2022-07-05T12:03:01;1.23;;;0.67;;
12484;SDS011;6307;46.804;11.580;2022-07-05T12:05:36;0.90;;;0.60;;
12484;SDS011;6307;46.804;11.580;2022-07-05T12:08:03;1.57;;;0.60;;
12484;SDS011;6307;46.804;11.580;2022-07-05T12:10:29;2.63;;;0.60;;
12484;SDS011;6307;46.804;11.580;2022-07-05T12:13:14;0.90;;;0.57;;
12484;SDS011;6307;46.804;11.580;2022-07-05T12:15:40;0.97;;;0.63;;
12484;SDS011;6307;46.804;11.580;2022-07-05T12:18:07;3.37;;;0.70;;
12484;SDS011;6307;46.804;11.580;2022-07-05T12:20:38;1.47;;;0.70;;
12484;SDS011;6307;46.804;11.580;2022-07-05T12:23:05;1.23;;;0.50;;
12484;SDS011;6307;46.804;11.580;2022-07-05T12:25:32;1.20;;;0.57;;
12484;SDS011;6307;46.804;11.580;2022-07-05T12:28:00;0.60;;;0.60;;
12484;SDS011;6307;46.804;11.580;2022-07-05T12:30:31;0.93;;;0.53;;
12484;SDS011;6307;46.804;11.580;2022-07-05T12:35:44;1.27;;;0.50;;
12484;SDS011;6307;46.804;11.580;2022-07-05T12:38:18;0.50;;;0.50;;
12484;SDS011;6307;46.804;11.580;2022-07-05T12:40:47;0.37;;;0.37;;
12484;SDS011;6307;46.804;11.580;2022-07-05T12:43:22;0.37;;;0.30;;
12484;SDS011;6307;46.804;11.580;2022-07-05T12:46:04;0.53;;;0.40;;
12484;SDS011;6307;46.804;11.580;2022-07-05T12:48:36;0.50;;;0.47;;
12484;SDS011;6307;46.804;11.580;2022-07-05T12:51:04;0.90;;;0.40;;
12484;SDS011;6307;46.804;11.580;2022-07-05T12:53:32;0.50;;;0.50;;
12484;SDS011;6307;46.804;11.580;2022-07-05T12:56:22;0.50;;;0.47;;
12484;SDS011;6307;46.804;11.580;2022-07-05T12:59:08;1.80;;;0.43;;
12484;SDS011;6307;46.804;11.580;2022-07-05T13:01:44;1.40;;;0.50;;
12484;SDS011;6307;46.804;11.580;2022-07-05T13:04:11;1.67;;;0.50;;
12484;SDS011;6307;46.804;11.580;2022-07-05T13:09:15;1.70;;;0.40;;
12484;SDS011;6307;46.804;11.580;2022-07-05T13:14:36;0.43;;;0.30;;
12484;SDS011;6307;46.804;11.580;2022-07-05T13:17:05;2.40;;;0.60;;
12484;SDS011;6307;46.804;11.580;2022-07-05T13:19:32;0.30;;;0.30;;
12484;SDS011;6307;46.804;11.580;2022-07-05T13:21:59;1.60;;;0.40;;
12484;SDS011;6307;46.804;11.580;2022-07-05T13:24:25;0.77;;;0.50;;
12484;SDS011;6307;46.804;11.580;2022-07-05T13:26:52;0.40;;;0.40;;
12484;SDS011;6307;46.804;11.580;2022-07-05T13:29:18;0.60;;;0.30;;
12484;SDS011;6307;46.804;11.580;2022-07-05T13:31:46;0.50;;;0.30;;
12484;SDS011;6307;46.804;11.580;2022-07-05T13:34:12;0.40;;;0.40;;
12484;SDS011;6307;46.804;11.580;2022-07-05T13:36:38;1.30;;;0.70;;
12484;SDS011;6307;46.804;11.580;2022-07-05T13:39:04;0.87;;;0.60;;
12484;SDS011;6307;46.804;11.580;2022-07-05T13:41:31;0.90;;;0.60;;
12484;SDS011;6307;46.804;11.580;2022-07-05T13:44:00;1.13;;;0.50;;
12484;SDS011;6307;46.804;11.580;2022-07-05T13:46:26;0.70;;;0.50;;
12484;SDS011;6307;46.804;11.580;2022-07-05T13:48:53;0.70;;;0.40;;
12484;SDS011;6307;46.804;11.580;2022-07-05T13:51:19;1.43;;;0.57;;
12484;SDS011;6307;46.804;11.580;2022-07-05T13:53:45;0.57;;;0.50;;
12484;SDS011;6307;46.804;11.580;2022-07-05T13:56:11;1.47;;;0.50;;
12484;SDS011;6307;46.804;11.580;2022-07-05T13:58:38;1.80;;;0.63;;
12484;SDS011;6307;46.804;11.580;2022-07-05T14:01:04;1.07;;;0.50;;
12484;SDS011;6307;46.804;11.580;2022-07-05T14:03:31;0.73;;;0.57;;
12484;SDS011;6307;46.804;11.580;2022-07-05T14:05:57;1.40;;;0.60;;
12484;SDS011;6307;46.804;11.580;2022-07-05T14:08:23;0.87;;;0.40;;
12484;SDS011;6307;46.804;11.580;2022-07-05T14:10:50;0.63;;;0.50;;
12484;SDS011;6307;46.804;11.580;2022-07-05T14:13:20;0.50;;;0.47;;
12484;SDS011;6307;46.804;11.580;2022-07-05T14:15:47;0.40;;;0.33;;
12484;SDS011;6307;46.804;11.580;2022-07-05T14:18:15;1.03;;;0.60;;
12484;SDS011;6307;46.804;11.580;2022-07-05T14:20:44;1.00;;;0.60;;
12484;SDS011;6307;46.804;11.580;2022-07-05T14:23:12;0.77;;;0.53;;
12484;SDS011;6307;46.804;11.580;2022-07-05T14:25:39;0.87;;;0.67;;
12484;SDS011;6307;46.804;11.580;2022-07-05T14:28:06;0.73;;;0.50;;
12484;SDS011;6307;46.804;11.580;2022-07-05T14:30:34;0.70;;;0.60;;
12484;SDS011;6307;46.804;11.580;2022-07-05T14:33:02;1.07;;;0.77;;
12484;SDS011;6307;46.804;11.580;2022-07-05T14:35:29;0.60;;;0.60;;
12484;SDS011;6307;46.804;11.580;2022-07-05T14:37:57;0.67;;;0.67;;
12484;SDS011;6307;46.804;11.580;2022-07-05T14:40:24;2.73;;;0.60;;
12484;SDS011;6307;46.804;11.580;2022-07-05T14:42:51;0.70;;;0.50;;
12484;SDS011;6307;46.804;11.580;2022-07-05T14:45:19;1.53;;;0.57;;
12484;SDS011;6307;46.804;11.580;2022-07-05T14:47:45;0.80;;;0.60;;
12484;SDS011;6307;46.804;11.580;2022-07-05T14:50:12;3.27;;;0.70;;
12484;SDS011;6307;46.804;11.580;2022-07-05T14:52:40;0.70;;;0.70;;
12484;SDS011;6307;46.804;11.580;2022-07-05T14:55:10;1.13;;;0.80;;
12484;SDS011;6307;46.804;11.580;2022-07-05T14:57:36;0.50;;;0.50;;
12484;SDS011;6307;46.804;11.580;2022-07-05T15:00:04;1.53;;;0.60;;
12484;SDS011;6307;46.804;11.580;2022-07-05T15:02:34;0.77;;;0.60;;
12484;SDS011;6307;46.804;11.580;2022-07-05T15:05:02;1.20;;;0.60;;
12484;SDS011;6307;46.804;11.580;2022-07-05T15:07:29;0.90;;;0.70;;
12484;SDS011;6307;46.804;11.580;2022-07-05T15:09:56;1.40;;;0.60;;
12484;SDS011;6307;46.804;11.580;2022-07-05T15:12:22;1.53;;;0.80;;
12484;SDS011;6307;46.804;11.580;2022-07-05T15:14:49;0.93;;;0.73;;
12484;SDS011;6307;46.804;11.580;2022-07-05T15:17:15;0.57;;;0.50;;
12484;SDS011;6307;46.804;11.580;2022-07-05T15:19:41;0.70;;;0.60;;
12484;SDS011;6307;46.804;11.580;2022-07-05T15:22:08;1.50;;;0.70;;
12484;SDS011;6307;46.804;11.580;2022-07-05T15:24:38;1.73;;;0.57;;
12484;SDS011;6307;46.804;11.580;2022-07-05T15:27:04;1.67;;;0.80;;
12484;SDS011;6307;46.804;11.580;2022-07-05T15:29:30;0.70;;;0.70;;
12484;SDS011;6307;46.804;11.580;2022-07-05T15:31:57;1.60;;;0.80;;
12484;SDS011;6307;46.804;11.580;2022-07-05T15:34:23;1.10;;;0.60;;